sensor_id;sensor_type;location;lat;lon;timestamp;temperature;humidity
10149;DHT22;5115;50.920;6.376;2023-03-14T00:00:55;13.00;99.90
10149;DHT22;5115;50.920;6.376;2023-03-14T00:03:21;13.10;99.90
10149;DHT22;5115;50.920;6.376;2023-03-14T00:05:46;13.00;99.90
10149;DHT22;5115;50.920;6.376;2023-03-14T00:08:12;12.90;99.90
10149;DHT22;5115;50.920;6.376;2023-03-14T00:10:38;13.00;99.90
10149;DHT22;5115;50.920;6.376;2023-03-14T00:13:04;12.90;99.90
10149;DHT22;5115;50.920;6.376;2023-03-14T00:15:31;12.90;99.90
10149;DHT22;5115;50.920;6.376;2023-03-14T00:17:57;12.90;99.90
10149;DHT22;5115;50.920;6.376;2023-03-14T00:20:22;12.90;99.90
10149;DHT22;5115;50.920;6.376;2023-03-14T00:22:48;12.90;99.90
10149;DHT22;5115;50.920;6.376;2023-03-14T00:25:13;12.90;99.90
10149;DHT22;5115;50.920;6.376;2023-03-14T00:27:39;13.00;99.90
10149;DHT22;5115;50.920;6.376;2023-03-14T00:30:05;12.90;99.90
10149;DHT22;5115;50.920;6.376;2023-03-14T00:32:33;12.70;99.90
10149;DHT22;5115;50.920;6.376;2023-03-14T00:34:58;12.50;99.90
10149;DHT22;5115;50.920;6.376;2023-03-14T00:37:24;12.30;99.90
10149;DHT22;5115;50.920;6.376;2023-03-14T00:39:51;12.00;99.90
10149;DHT22;5115;50.920;6.376;2023-03-14T00:42:17;11.70;99.90
10149;DHT22;5115;50.920;6.376;2023-03-14T00:44:42;11.40;99.90
10149;DHT22;5115;50.920;6.376;2023-03-14T00:47:08;11.30;99.90
10149;DHT22;5115;50.920;6.376;2023-03-14T00:49:34;11.20;99.90
10149;DHT22;5115;50.920;6.376;2023-03-14T00:51:59;11.10;99.90
10149;DHT22;5115;50.920;6.376;2023-03-14T00:54:25;11.00;99.90
10149;DHT22;5115;50.920;6.376;2023-03-14T00:56:50;11.10;99.90
10149;DHT22;5115;50.920;6.376;2023-03-14T00:59:16;11.00;99.90
10149;DHT22;5115;50.920;6.376;2023-03-14T01:01:44;11.10;99.90
10149;DHT22;5115;50.920;6.376;2023-03-14T01:04:10;11.00;99.90
10149;DHT22;5115;50.920;6.376;2023-03-14T01:06:35;11.00;99.90
10149;DHT22;5115;50.920;6.376;2023-03-14T01:09:01;11.00;99.90
10149;DHT22;5115;50.920;6.376;2023-03-14T01:11:32;11.10;99.90
10149;DHT22;5115;50.920;6.376;2023-03-14T01:13:58;11.10;99.90
10149;DHT22;5115;50.920;6.376;2023-03-14T01:16:25;11.20;99.90
10149;DHT22;5115;50.920;6.376;2023-03-14T01:18:51;11.30;99.90
10149;DHT22;5115;50.920;6.376;2023-03-14T01:21:23;11.30;99.90
10149;DHT22;5115;50.920;6.376;2023-03-14T01:23:50;11.20;99.90
10149;DHT22;5115;50.920;6.376;2023-03-14T01:26:19;11.20;99.90
10149;DHT22;5115;50.920;6.376;2023-03-14T01:28:46;11.20;99.90
10149;DHT22;5115;50.920;6.376;2023-03-14T01:31:12;11.20;99.90
10149;DHT22;5115;50.920;6.376;2023-03-14T01:33:39;11.20;99.90
10149;DHT22;5115;50.920;6.376;2023-03-14T01:36:05;11.20;99.90
10149;DHT22;5115;50.920;6.376;2023-03-14T01:38:33;11.20;99.90
10149;DHT22;5115;50.920;6.376;2023-03-14T01:40:59;11.20;99.90
10149;DHT22;5115;50.920;6.376;2023-03-14T01:43:25;11.10;99.90
10149;DHT22;5115;50.920;6.376;2023-03-14T01:46:12;11.10;99.90
10149;DHT22;5115;50.920;6.376;2023-03-14T01:52:02;11.30;99.90
10149;DHT22;5115;50.920;6.376;2023-03-14T01:54:36;11.00;99.90
10149;DHT22;5115;50.920;6.376;2023-03-14T01:57:13;10.90;99.90
10149;DHT22;5115;50.920;6.376;2023-03-14T01:59:42;10.90;99.90
10149;DHT22;5115;50.920;6.376;2023-03-14T02:02:09;10.90;99.90
10149;DHT22;5115;50.920;6.376;2023-03-14T02:04:38;10.90;99.90
10149;DHT22;5115;50.920;6.376;2023-03-14T02:07:11;10.90;99.90
10149;DHT22;5115;50.920;6.376;2023-03-14T02:09:39;11.00;99.90
10149;DHT22;5115;50.920;6.376;2023-03-14T02:12:07;11.00;99.90
10149;DHT22;5115;50.920;6.376;2023-03-14T02:14:34;11.00;99.90
10149;DHT22;5115;50.920;6.376;2023-03-14T02:17:01;11.00;99.90
10149;DHT22;5115;50.920;6.376;2023-03-14T02:19:40;11.00;99.90
10149;DHT22;5115;50.920;6.376;2023-03-14T02:22:12;11.10;99.90
10149;DHT22;5115;50.920;6.376;2023-03-14T02:24:43;11.00;99.90
10149;DHT22;5115;50.920;6.376;2023-03-14T02:27:13;11.10;99.90
10149;DHT22;5115;50.920;6.376;2023-03-14T02:30:08;11.00;99.90
10149;DHT22;5115;50.920;6.376;2023-03-14T02:32:32;11.00;99.90
10149;DHT22;5115;50.920;6.376;2023-03-14T02:35:01;11.00;99.90
10149;DHT22;5115;50.920;6.376;2023-03-14T02:37:42;11.00;99.90
10149;DHT22;5115;50.920;6.376;2023-03-14T02:40:09;11.10;99.90
10149;DHT22;5115;50.920;6.376;2023-03-14T02:42:35;11.10;99.90
10149;DHT22;5115;50.920;6.376;2023-03-14T02:47:39;11.20;99.90
10149;DHT22;5115;50.920;6.376;2023-03-14T02:50:10;11.10;99.90
10149;DHT22;5115;50.920;6.376;2023-03-14T02:52:37;11.20;99.90
10149;DHT22;5115;50.920;6.376;2023-03-14T02:55:04;11.30;99.90
10149;DHT22;5115;50.920;6.376;2023-03-14T02:57:31;11.30;99.90
10149;DHT22;5115;50.920;6.376;2023-03-14T03:00:00;11.40;99.90
10149;DHT22;5115;50.920;6.376;2023-03-14T03:02:27;11.30;99.90
10149;DHT22;5115;50.920;6.376;2023-03-14T03:04:52;11.30;99.90
10149;DHT22;5115;50.920;6.376;2023-03-14T03:07:18;11.40;99.90
10149;DHT22;5115;50.920;6.376;2023-03-14T03:09:44;11.30;99.90
10149;DHT22;5115;50.920;6.376;2023-03-14T03:12:10;11.20;99.90
10149;DHT22;5115;50.920;6.376;2023-03-14T03:14:36;11.20;99.90
10149;DHT22;5115;50.920;6.376;2023-03-14T03:17:03;11.10;99.90
10149;DHT22;5115;50.920;6.376;2023-03-14T03:19:29;11.10;99.90
10149;DHT22;5115;50.920;6.376;2023-03-14T03:21:54;11.10;99.90
10149;DHT22;5115;50.920;6.376;2023-03-14T03:24:20;11.10;99.90
10149;DHT22;5115;50.920;6.376;2023-03-14T03:26:46;11.00;99.90
10149;DHT22;5115;50.920;6.376;2023-03-14T03:29:12;11.00;99.90
10149;DHT22;5115;50.920;6.376;2023-03-14T03:31:38;11.10;99.90
10149;DHT22;5115;50.920;6.376;2023-03-14T03:34:04;11.00;99.90
10149;DHT22;5115;50.920;6.376;2023-03-14T03:36:30;11.00;99.90
10149;DHT22;5115;50.920;6.376;2023-03-14T03:38:56;11.00;99.90
10149;DHT22;5115;50.920;6.376;2023-03-14T03:41:21;10.90;99.90
10149;DHT22;5115;50.920;6.376;2023-03-14T03:43:47;11.00;99.90
10149;DHT22;5115;50.920;6.376;2023-03-14T03:46:12;10.90;99.90
10149;DHT22;5115;50.920;6.376;2023-03-14T03:48:39;10.90;99.90
10149;DHT22;5115;50.920;6.376;2023-03-14T03:51:05;10.90;99.90
10149;DHT22;5115;50.920;6.376;2023-03-14T03:53:31;10.90;99.90
10149;DHT22;5115;50.920;6.376;2023-03-14T03:55:57;10.90;99.90
10149;DHT22;5115;50.920;6.376;2023-03-14T03:58:22;10.90;99.90
10149;DHT22;5115;50.920;6.376;2023-03-14T04:00:48;10.90;99.90
10149;DHT22;5115;50.920;6.376;2023-03-14T04:03:13;10.90;99.90
10149;DHT22;5115;50.920;6.376;2023-03-14T04:05:39;10.90;99.90
10149;DHT22;5115;50.920;6.376;2023-03-14T04:08:05;10.80;99.90
10149;DHT22;5115;50.920;6.376;2023-03-14T04:10:34;10.80;99.90
10149;DHT22;5115;50.920;6.376;2023-03-14T04:12:59;10.80;99.90
10149;DHT22;5115;50.920;6.376;2023-03-14T04:15:25;10.90;99.90
10149;DHT22;5115;50.920;6.376;2023-03-14T04:17:50;10.80;99.90
10149;DHT22;5115;50.920;6.376;2023-03-14T04:20:16;11.10;99.90
10149;DHT22;5115;50.920;6.376;2023-03-14T04:22:42;10.80;99.90
10149;DHT22;5115;50.920;6.376;2023-03-14T04:25:07;10.90;99.90
10149;DHT22;5115;50.920;6.376;2023-03-14T04:27:33;10.90;99.90
10149;DHT22;5115;50.920;6.376;2023-03-14T04:29:59;10.90;99.90
10149;DHT22;5115;50.920;6.376;2023-03-14T04:32:24;10.80;99.90
10149;DHT22;5115;50.920;6.376;2023-03-14T04:34:50;10.90;99.90
10149;DHT22;5115;50.920;6.376;2023-03-14T04:37:15;10.90;99.90
10149;DHT22;5115;50.920;6.376;2023-03-14T04:39:41;10.80;99.90
10149;DHT22;5115;50.920;6.376;2023-03-14T04:42:07;10.90;99.90
10149;DHT22;5115;50.920;6.376;2023-03-14T04:44:32;10.60;99.90
10149;DHT22;5115;50.920;6.376;2023-03-14T04:46:58;10.90;99.90
10149;DHT22;5115;50.920;6.376;2023-03-14T04:49:23;10.90;99.90
10149;DHT22;5115;50.920;6.376;2023-03-14T04:51:49;10.90;99.90
10149;DHT22;5115;50.920;6.376;2023-03-14T04:54:18;11.00;99.90
10149;DHT22;5115;50.920;6.376;2023-03-14T04:56:43;11.00;99.90
10149;DHT22;5115;50.920;6.376;2023-03-14T04:59:09;11.10;99.90
10149;DHT22;5115;50.920;6.376;2023-03-14T05:01:35;11.10;99.90
10149;DHT22;5115;50.920;6.376;2023-03-14T05:04:01;11.10;99.90
10149;DHT22;5115;50.920;6.376;2023-03-14T05:06:26;11.00;99.90
10149;DHT22;5115;50.920;6.376;2023-03-14T05:08:52;11.00;99.90
10149;DHT22;5115;50.920;6.376;2023-03-14T05:11:17;11.00;99.90
10149;DHT22;5115;50.920;6.376;2023-03-14T05:13:43;11.00;99.90
10149;DHT22;5115;50.920;6.376;2023-03-14T05:16:10;11.00;99.90
10149;DHT22;5115;50.920;6.376;2023-03-14T05:18:36;9.70;99.90
10149;DHT22;5115;50.920;6.376;2023-03-14T05:21:03;10.90;99.90
10149;DHT22;5115;50.920;6.376;2023-03-14T05:23:29;10.90;99.90
10149;DHT22;5115;50.920;6.376;2023-03-14T05:25:55;11.40;99.90
10149;DHT22;5115;50.920;6.376;2023-03-14T05:28:21;10.80;99.90
10149;DHT22;5115;50.920;6.376;2023-03-14T05:30:46;10.90;99.90
10149;DHT22;5115;50.920;6.376;2023-03-14T05:33:12;10.80;99.90
10149;DHT22;5115;50.920;6.376;2023-03-14T05:35:38;10.70;99.90
10149;DHT22;5115;50.920;6.376;2023-03-14T05:38:03;10.70;99.90
10149;DHT22;5115;50.920;6.376;2023-03-14T05:40:29;10.70;99.90
10149;DHT22;5115;50.920;6.376;2023-03-14T05:42:54;10.60;99.90
10149;DHT22;5115;50.920;6.376;2023-03-14T05:45:20;10.60;99.90
10149;DHT22;5115;50.920;6.376;2023-03-14T05:47:46;10.70;99.90
10149;DHT22;5115;50.920;6.376;2023-03-14T05:50:12;10.70;99.90
10149;DHT22;5115;50.920;6.376;2023-03-14T05:52:37;10.70;99.90
10149;DHT22;5115;50.920;6.376;2023-03-14T05:55:03;10.70;99.90
10149;DHT22;5115;50.920;6.376;2023-03-14T05:57:29;10.60;99.90
10149;DHT22;5115;50.920;6.376;2023-03-14T05:59:55;10.60;99.90
10149;DHT22;5115;50.920;6.376;2023-03-14T06:02:20;10.60;99.90
10149;DHT22;5115;50.920;6.376;2023-03-14T06:04:46;10.50;99.90
10149;DHT22;5115;50.920;6.376;2023-03-14T06:07:12;10.50;99.90
10149;DHT22;5115;50.920;6.376;2023-03-14T06:09:37;10.60;99.90
10149;DHT22;5115;50.920;6.376;2023-03-14T06:12:05;10.60;99.90
10149;DHT22;5115;50.920;6.376;2023-03-14T06:14:31;10.60;99.90
10149;DHT22;5115;50.920;6.376;2023-03-14T06:16:56;10.60;99.90
10149;DHT22;5115;50.920;6.376;2023-03-14T06:19:24;10.60;99.90
10149;DHT22;5115;50.920;6.376;2023-03-14T06:21:50;10.70;99.90
10149;DHT22;5115;50.920;6.376;2023-03-14T06:24:16;10.70;99.90
10149;DHT22;5115;50.920;6.376;2023-03-14T06:26:41;10.80;99.90
10149;DHT22;5115;50.920;6.376;2023-03-14T06:29:07;10.90;99.90
10149;DHT22;5115;50.920;6.376;2023-03-14T06:31:33;11.00;99.90
10149;DHT22;5115;50.920;6.376;2023-03-14T06:33:58;11.00;99.90
10149;DHT22;5115;50.920;6.376;2023-03-14T06:36:24;11.10;99.90
10149;DHT22;5115;50.920;6.376;2023-03-14T06:38:50;11.30;99.90
10149;DHT22;5115;50.920;6.376;2023-03-14T06:41:16;11.00;99.90
10149;DHT22;5115;50.920;6.376;2023-03-14T06:43:41;11.10;99.90
10149;DHT22;5115;50.920;6.376;2023-03-14T06:46:07;11.00;99.90
10149;DHT22;5115;50.920;6.376;2023-03-14T06:48:32;11.10;99.90
10149;DHT22;5115;50.920;6.376;2023-03-14T06:50:58;11.40;99.90
10149;DHT22;5115;50.920;6.376;2023-03-14T06:53:24;11.20;99.90
10149;DHT22;5115;50.920;6.376;2023-03-14T06:55:50;11.20;99.90
10149;DHT22;5115;50.920;6.376;2023-03-14T06:58:16;11.20;99.90
10149;DHT22;5115;50.920;6.376;2023-03-14T07:00:42;11.30;99.90
10149;DHT22;5115;50.920;6.376;2023-03-14T07:03:07;11.40;99.90
10149;DHT22;5115;50.920;6.376;2023-03-14T07:05:33;11.60;99.90
10149;DHT22;5115;50.920;6.376;2023-03-14T07:07:58;11.30;99.90
10149;DHT22;5115;50.920;6.376;2023-03-14T07:10:24;11.40;99.90
10149;DHT22;5115;50.920;6.376;2023-03-14T07:12:49;11.40;99.90
10149;DHT22;5115;50.920;6.376;2023-03-14T07:15:15;11.50;99.90
10149;DHT22;5115;50.920;6.376;2023-03-14T07:17:41;11.40;99.90
10149;DHT22;5115;50.920;6.376;2023-03-14T07:20:07;11.60;99.90
10149;DHT22;5115;50.920;6.376;2023-03-14T07:22:34;11.60;99.90
10149;DHT22;5115;50.920;6.376;2023-03-14T07:24:59;11.60;99.90
10149;DHT22;5115;50.920;6.376;2023-03-14T07:27:25;11.70;99.90
10149;DHT22;5115;50.920;6.376;2023-03-14T07:29:51;11.60;99.90
10149;DHT22;5115;50.920;6.376;2023-03-14T07:32:16;11.70;99.90
10149;DHT22;5115;50.920;6.376;2023-03-14T07:34:42;11.60;99.90
10149;DHT22;5115;50.920;6.376;2023-03-14T07:37:08;11.70;99.90
10149;DHT22;5115;50.920;6.376;2023-03-14T07:39:34;11.70;99.90
10149;DHT22;5115;50.920;6.376;2023-03-14T07:42:00;11.70;99.90
10149;DHT22;5115;50.920;6.376;2023-03-14T07:44:27;11.60;99.90
10149;DHT22;5115;50.920;6.376;2023-03-14T07:46:52;11.70;99.90
10149;DHT22;5115;50.920;6.376;2023-03-14T07:49:18;12.60;99.90
10149;DHT22;5115;50.920;6.376;2023-03-14T07:51:43;11.70;99.90
10149;DHT22;5115;50.920;6.376;2023-03-14T07:54:10;11.60;99.90
10149;DHT22;5115;50.920;6.376;2023-03-14T07:56:35;11.60;99.90
10149;DHT22;5115;50.920;6.376;2023-03-14T07:59:01;11.70;99.90
10149;DHT22;5115;50.920;6.376;2023-03-14T08:01:26;11.70;99.90
10149;DHT22;5115;50.920;6.376;2023-03-14T08:03:52;11.70;99.90
10149;DHT22;5115;50.920;6.376;2023-03-14T08:06:18;11.70;99.90
10149;DHT22;5115;50.920;6.376;2023-03-14T08:08:45;11.80;99.90
10149;DHT22;5115;50.920;6.376;2023-03-14T08:11:13;11.80;99.90
10149;DHT22;5115;50.920;6.376;2023-03-14T08:13:39;11.90;99.90
10149;DHT22;5115;50.920;6.376;2023-03-14T08:16:05;11.90;99.90
10149;DHT22;5115;50.920;6.376;2023-03-14T08:18:31;12.00;99.90
10149;DHT22;5115;50.920;6.376;2023-03-14T08:20:57;12.10;99.90
10149;DHT22;5115;50.920;6.376;2023-03-14T08:23:23;12.10;99.90
10149;DHT22;5115;50.920;6.376;2023-03-14T08:25:50;12.10;99.90
10149;DHT22;5115;50.920;6.376;2023-03-14T08:28:16;12.10;99.90
10149;DHT22;5115;50.920;6.376;2023-03-14T08:30:42;12.00;99.90
10149;DHT22;5115;50.920;6.376;2023-03-14T08:33:08;12.10;99.90
10149;DHT22;5115;50.920;6.376;2023-03-14T08:35:33;12.00;99.90
10149;DHT22;5115;50.920;6.376;2023-03-14T08:37:59;11.50;99.90
10149;DHT22;5115;50.920;6.376;2023-03-14T08:40:24;12.00;99.90
10149;DHT22;5115;50.920;6.376;2023-03-14T08:42:50;11.90;99.90
10149;DHT22;5115;50.920;6.376;2023-03-14T08:45:16;11.90;99.90
10149;DHT22;5115;50.920;6.376;2023-03-14T08:47:43;12.20;99.90
10149;DHT22;5115;50.920;6.376;2023-03-14T08:50:10;12.00;99.90
10149;DHT22;5115;50.920;6.376;2023-03-14T08:52:36;11.90;99.90
10149;DHT22;5115;50.920;6.376;2023-03-14T08:55:03;12.00;99.90
10149;DHT22;5115;50.920;6.376;2023-03-14T08:57:29;12.00;99.90
10149;DHT22;5115;50.920;6.376;2023-03-14T08:59:56;12.10;99.90
10149;DHT22;5115;50.920;6.376;2023-03-14T09:02:23;12.10;99.90
10149;DHT22;5115;50.920;6.376;2023-03-14T09:04:50;12.20;99.90
10149;DHT22;5115;50.920;6.376;2023-03-14T09:07:16;12.80;99.90
10149;DHT22;5115;50.920;6.376;2023-03-14T09:09:41;11.90;99.90
10149;DHT22;5115;50.920;6.376;2023-03-14T09:12:07;11.80;99.90
10149;DHT22;5115;50.920;6.376;2023-03-14T09:14:33;11.30;99.90
10149;DHT22;5115;50.920;6.376;2023-03-14T09:16:58;11.00;99.90
10149;DHT22;5115;50.920;6.376;2023-03-14T09:19:24;11.00;99.90
10149;DHT22;5115;50.920;6.376;2023-03-14T09:21:50;10.30;99.90
10149;DHT22;5115;50.920;6.376;2023-03-14T09:24:16;10.00;99.90
10149;DHT22;5115;50.920;6.376;2023-03-14T09:26:42;10.00;99.90
10149;DHT22;5115;50.920;6.376;2023-03-14T09:29:08;9.90;99.90
10149;DHT22;5115;50.920;6.376;2023-03-14T09:31:33;9.90;99.90
10149;DHT22;5115;50.920;6.376;2023-03-14T09:34:00;9.80;99.90
10149;DHT22;5115;50.920;6.376;2023-03-14T09:36:26;9.70;99.90
10149;DHT22;5115;50.920;6.376;2023-03-14T09:38:51;9.60;99.90
10149;DHT22;5115;50.920;6.376;2023-03-14T09:41:29;9.50;99.90
10149;DHT22;5115;50.920;6.376;2023-03-14T09:44:08;9.50;99.90
10149;DHT22;5115;50.920;6.376;2023-03-14T09:46:37;9.30;99.90
10149;DHT22;5115;50.920;6.376;2023-03-14T09:49:13;9.20;99.90
10149;DHT22;5115;50.920;6.376;2023-03-14T09:51:44;9.10;99.90
10149;DHT22;5115;50.920;6.376;2023-03-14T09:54:25;8.90;99.90
10149;DHT22;5115;50.920;6.376;2023-03-14T09:56:54;9.00;99.90
10149;DHT22;5115;50.920;6.376;2023-03-14T09:59:20;9.20;99.90
10149;DHT22;5115;50.920;6.376;2023-03-14T10:01:46;9.10;99.90
10149;DHT22;5115;50.920;6.376;2023-03-14T10:04:15;9.70;99.90
10149;DHT22;5115;50.920;6.376;2023-03-14T10:06:42;9.10;99.90
10149;DHT22;5115;50.920;6.376;2023-03-14T10:09:24;9.00;99.90
10149;DHT22;5115;50.920;6.376;2023-03-14T10:11:57;9.10;99.90
10149;DHT22;5115;50.920;6.376;2023-03-14T10:14:37;9.20;99.90
10149;DHT22;5115;50.920;6.376;2023-03-14T10:17:08;9.20;99.90
10149;DHT22;5115;50.920;6.376;2023-03-14T10:19:35;9.40;99.90
10149;DHT22;5115;50.920;6.376;2023-03-14T10:22:03;9.60;99.90
10149;DHT22;5115;50.920;6.376;2023-03-14T10:24:32;9.50;99.90
10149;DHT22;5115;50.920;6.376;2023-03-14T10:27:04;9.40;99.90
10149;DHT22;5115;50.920;6.376;2023-03-14T10:29:32;9.40;99.90
10149;DHT22;5115;50.920;6.376;2023-03-14T10:32:01;9.30;99.90
10149;DHT22;5115;50.920;6.376;2023-03-14T10:34:35;9.50;99.90
10149;DHT22;5115;50.920;6.376;2023-03-14T10:37:17;9.40;99.90
10149;DHT22;5115;50.920;6.376;2023-03-14T10:39:52;9.40;99.90
10149;DHT22;5115;50.920;6.376;2023-03-14T10:44:50;9.40;99.90
10149;DHT22;5115;50.920;6.376;2023-03-14T10:47:21;9.50;99.90
10149;DHT22;5115;50.920;6.376;2023-03-14T10:49:48;9.60;99.90
10149;DHT22;5115;50.920;6.376;2023-03-14T10:52:20;9.80;99.90
10149;DHT22;5115;50.920;6.376;2023-03-14T10:54:49;9.80;99.90
10149;DHT22;5115;50.920;6.376;2023-03-14T10:57:20;9.90;99.90
10149;DHT22;5115;50.920;6.376;2023-03-14T10:59:46;9.90;99.90
10149;DHT22;5115;50.920;6.376;2023-03-14T11:05:09;9.80;99.90
10149;DHT22;5115;50.920;6.376;2023-03-14T11:07:43;9.70;99.90
10149;DHT22;5115;50.920;6.376;2023-03-14T11:12:47;9.90;99.90
10149;DHT22;5115;50.920;6.376;2023-03-14T11:15:19;9.90;99.90
10149;DHT22;5115;50.920;6.376;2023-03-14T11:23:24;10.00;99.90
10149;DHT22;5115;50.920;6.376;2023-03-14T11:25:54;10.20;99.90
10149;DHT22;5115;50.920;6.376;2023-03-14T11:28:40;10.00;99.90
10149;DHT22;5115;50.920;6.376;2023-03-14T11:31:28;10.10;99.90
10149;DHT22;5115;50.920;6.376;2023-03-14T11:34:22;10.20;99.90
10149;DHT22;5115;50.920;6.376;2023-03-14T11:37:01;10.10;99.90
10149;DHT22;5115;50.920;6.376;2023-03-14T11:39:38;9.90;99.90
10149;DHT22;5115;50.920;6.376;2023-03-14T11:42:04;9.50;99.90
10149;DHT22;5115;50.920;6.376;2023-03-14T11:44:36;9.50;99.90
10149;DHT22;5115;50.920;6.376;2023-03-14T11:47:34;9.30;99.90
10149;DHT22;5115;50.920;6.376;2023-03-14T11:50:17;9.30;99.90
10149;DHT22;5115;50.920;6.376;2023-03-14T11:52:56;9.10;99.90
10149;DHT22;5115;50.920;6.376;2023-03-14T11:55:35;9.00;99.90
10149;DHT22;5115;50.920;6.376;2023-03-14T11:58:17;9.00;99.90
10149;DHT22;5115;50.920;6.376;2023-03-14T12:00:47;9.00;99.90
10149;DHT22;5115;50.920;6.376;2023-03-14T12:03:32;8.90;99.90
10149;DHT22;5115;50.920;6.376;2023-03-14T12:06:31;8.80;99.90
10149;DHT22;5115;50.920;6.376;2023-03-14T12:09:01;8.90;99.90
10149;DHT22;5115;50.920;6.376;2023-03-14T12:16:48;9.30;99.90
10149;DHT22;5115;50.920;6.376;2023-03-14T12:21:54;9.30;99.90
10149;DHT22;5115;50.920;6.376;2023-03-14T12:24:31;9.30;99.90
10149;DHT22;5115;50.920;6.376;2023-03-14T12:27:01;9.50;99.90
10149;DHT22;5115;50.920;6.376;2023-03-14T12:29:28;9.60;99.90
10149;DHT22;5115;50.920;6.376;2023-03-14T12:34:46;9.80;99.90
10149;DHT22;5115;50.920;6.376;2023-03-14T12:43:04;9.90;99.90
10149;DHT22;5115;50.920;6.376;2023-03-14T12:46:20;10.10;99.90
10149;DHT22;5115;50.920;6.376;2023-03-14T12:49:08;10.20;99.90
10149;DHT22;5115;50.920;6.376;2023-03-14T12:51:42;10.20;99.90
10149;DHT22;5115;50.920;6.376;2023-03-14T12:54:27;10.10;99.90
10149;DHT22;5115;50.920;6.376;2023-03-14T12:59:45;10.00;99.90
10149;DHT22;5115;50.920;6.376;2023-03-14T13:05:09;9.70;99.90
10149;DHT22;5115;50.920;6.376;2023-03-14T13:10:41;9.80;99.90
10149;DHT22;5115;50.920;6.376;2023-03-14T13:13:24;10.00;99.90
10149;DHT22;5115;50.920;6.376;2023-03-14T13:15:59;10.10;99.90
10149;DHT22;5115;50.920;6.376;2023-03-14T13:18:35;10.20;99.90
10149;DHT22;5115;50.920;6.376;2023-03-14T13:21:09;10.30;99.90
10149;DHT22;5115;50.920;6.376;2023-03-14T13:23:37;10.40;99.90
10149;DHT22;5115;50.920;6.376;2023-03-14T13:26:03;10.30;99.90
10149;DHT22;5115;50.920;6.376;2023-03-14T13:28:32;10.20;99.90
10149;DHT22;5115;50.920;6.376;2023-03-14T13:31:03;9.90;99.90
10149;DHT22;5115;50.920;6.376;2023-03-14T13:33:30;9.90;99.90
10149;DHT22;5115;50.920;6.376;2023-03-14T13:36:02;9.20;99.90
10149;DHT22;5115;50.920;6.376;2023-03-14T13:38:31;9.20;99.90
10149;DHT22;5115;50.920;6.376;2023-03-14T13:40:59;8.80;99.90
10149;DHT22;5115;50.920;6.376;2023-03-14T13:43:41;8.70;99.90
10149;DHT22;5115;50.920;6.376;2023-03-14T13:46:15;8.70;99.90
10149;DHT22;5115;50.920;6.376;2023-03-14T13:48:56;8.50;99.90
10149;DHT22;5115;50.920;6.376;2023-03-14T13:51:23;8.50;99.90
10149;DHT22;5115;50.920;6.376;2023-03-14T13:53:55;8.50;99.90
10149;DHT22;5115;50.920;6.376;2023-03-14T13:56:22;8.60;99.90
10149;DHT22;5115;50.920;6.376;2023-03-14T13:58:49;8.60;99.90
10149;DHT22;5115;50.920;6.376;2023-03-14T14:01:32;8.80;99.90
10149;DHT22;5115;50.920;6.376;2023-03-14T14:04:08;8.80;99.90
10149;DHT22;5115;50.920;6.376;2023-03-14T14:06:44;8.90;99.90
10149;DHT22;5115;50.920;6.376;2023-03-14T14:09:15;8.90;99.90
10149;DHT22;5115;50.920;6.376;2023-03-14T14:14:15;9.00;99.90
10149;DHT22;5115;50.920;6.376;2023-03-14T14:16:43;9.00;99.90
10149;DHT22;5115;50.920;6.376;2023-03-14T14:19:09;8.90;99.90
10149;DHT22;5115;50.920;6.376;2023-03-14T14:21:35;8.90;99.90
10149;DHT22;5115;50.920;6.376;2023-03-14T14:24:01;8.90;99.90
10149;DHT22;5115;50.920;6.376;2023-03-14T14:26:27;9.00;99.90
10149;DHT22;5115;50.920;6.376;2023-03-14T14:29:04;9.00;99.90
10149;DHT22;5115;50.920;6.376;2023-03-14T14:31:30;9.00;99.90
10149;DHT22;5115;50.920;6.376;2023-03-14T14:33:57;8.90;99.90
10149;DHT22;5115;50.920;6.376;2023-03-14T14:39:05;8.90;99.90
10149;DHT22;5115;50.920;6.376;2023-03-14T14:41:34;8.80;99.90
10149;DHT22;5115;50.920;6.376;2023-03-14T14:44:02;8.90;99.90
10149;DHT22;5115;50.920;6.376;2023-03-14T14:46:31;8.90;99.90
10149;DHT22;5115;50.920;6.376;2023-03-14T14:49:11;8.90;99.90
10149;DHT22;5115;50.920;6.376;2023-03-14T14:51:48;8.90;99.90
10149;DHT22;5115;50.920;6.376;2023-03-14T14:54:19;8.90;99.90
10149;DHT22;5115;50.920;6.376;2023-03-14T14:56:51;9.00;99.90
10149;DHT22;5115;50.920;6.376;2023-03-14T14:59:28;9.10;99.90
10149;DHT22;5115;50.920;6.376;2023-03-14T15:02:01;9.00;99.90
10149;DHT22;5115;50.920;6.376;2023-03-14T15:04:30;9.00;99.90
10149;DHT22;5115;50.920;6.376;2023-03-14T15:06:56;8.90;99.90
10149;DHT22;5115;50.920;6.376;2023-03-14T15:09:22;8.90;99.90
10149;DHT22;5115;50.920;6.376;2023-03-14T15:11:48;8.90;99.90
10149;DHT22;5115;50.920;6.376;2023-03-14T15:14:14;9.00;99.90
10149;DHT22;5115;50.920;6.376;2023-03-14T15:16:40;9.00;99.90
10149;DHT22;5115;50.920;6.376;2023-03-14T15:19:19;9.00;99.90
10149;DHT22;5115;50.920;6.376;2023-03-14T15:21:44;9.00;99.90
10149;DHT22;5115;50.920;6.376;2023-03-14T15:24:10;9.00;99.90
10149;DHT22;5115;50.920;6.376;2023-03-14T15:26:36;9.00;99.90
10149;DHT22;5115;50.920;6.376;2023-03-14T15:29:04;9.00;99.90
10149;DHT22;5115;50.920;6.376;2023-03-14T15:31:33;9.10;99.90
10149;DHT22;5115;50.920;6.376;2023-03-14T15:33:59;9.20;99.90
10149;DHT22;5115;50.920;6.376;2023-03-14T15:36:29;9.30;99.90
10149;DHT22;5115;50.920;6.376;2023-03-14T15:38:56;9.30;99.90
10149;DHT22;5115;50.920;6.376;2023-03-14T15:41:24;9.30;99.90
10149;DHT22;5115;50.920;6.376;2023-03-14T15:43:50;9.30;99.90
10149;DHT22;5115;50.920;6.376;2023-03-14T15:46:16;9.30;99.90
10149;DHT22;5115;50.920;6.376;2023-03-14T15:48:44;9.30;99.90
10149;DHT22;5115;50.920;6.376;2023-03-14T15:51:10;10.10;99.90
10149;DHT22;5115;50.920;6.376;2023-03-14T15:53:36;9.10;99.90
10149;DHT22;5115;50.920;6.376;2023-03-14T15:56:06;10.10;99.90
10149;DHT22;5115;50.920;6.376;2023-03-14T15:58:33;9.20;99.90
10149;DHT22;5115;50.920;6.376;2023-03-14T16:01:00;9.10;99.90
10149;DHT22;5115;50.920;6.376;2023-03-14T16:03:28;9.10;99.90
10149;DHT22;5115;50.920;6.376;2023-03-14T16:05:54;9.20;99.90
10149;DHT22;5115;50.920;6.376;2023-03-14T16:08:21;9.20;99.90
10149;DHT22;5115;50.920;6.376;2023-03-14T16:10:47;9.30;99.90
10149;DHT22;5115;50.920;6.376;2023-03-14T16:13:13;9.10;99.90
10149;DHT22;5115;50.920;6.376;2023-03-14T16:15:39;9.10;99.90
10149;DHT22;5115;50.920;6.376;2023-03-14T16:18:04;9.20;99.90
10149;DHT22;5115;50.920;6.376;2023-03-14T16:20:30;9.10;99.90
10149;DHT22;5115;50.920;6.376;2023-03-14T16:22:55;9.10;99.90
10149;DHT22;5115;50.920;6.376;2023-03-14T16:25:21;9.00;99.90
10149;DHT22;5115;50.920;6.376;2023-03-14T16:27:47;8.90;99.90
10149;DHT22;5115;50.920;6.376;2023-03-14T16:30:13;8.90;99.90
10149;DHT22;5115;50.920;6.376;2023-03-14T16:32:39;8.90;99.90
10149;DHT22;5115;50.920;6.376;2023-03-14T16:35:05;8.90;99.90
10149;DHT22;5115;50.920;6.376;2023-03-14T16:37:31;9.00;99.90
10149;DHT22;5115;50.920;6.376;2023-03-14T16:39:56;8.90;99.90
10149;DHT22;5115;50.920;6.376;2023-03-14T16:42:23;8.90;99.90
10149;DHT22;5115;50.920;6.376;2023-03-14T16:44:48;8.90;99.90
10149;DHT22;5115;50.920;6.376;2023-03-14T16:47:14;9.00;99.90
10149;DHT22;5115;50.920;6.376;2023-03-14T16:49:40;9.00;99.90